sensor_id;sensor_type;location;lat;lon;timestamp;pressure;altitude;pressure_sealevel;temperature;humidity
22872;BME280;11603;44.910;8.630;2022-10-23T00:00:28;101023.09;;;19.81;100.00
22872;BME280;11603;44.910;8.630;2022-10-23T00:02:54;101038.09;;;19.76;100.00
22872;BME280;11603;44.910;8.630;2022-10-23T00:05:21;101035.25;;;19.68;100.00
22872;BME280;11603;44.910;8.630;2022-10-23T00:07:57;101035.53;;;19.65;100.00
22872;BME280;11603;44.910;8.630;2022-10-23T00:10:24;101032.25;;;19.61;100.00
22872;BME280;11603;44.910;8.630;2022-10-23T00:12:51;101030.41;;;19.52;100.00
22872;BME280;11603;44.910;8.630;2022-10-23T00:15:19;101031.63;;;19.38;100.00
22872;BME280;11603;44.910;8.630;2022-10-23T00:17:45;101025.88;;;19.32;100.00
22872;BME280;11603;44.910;8.630;2022-10-23T00:20:11;101030.31;;;19.23;100.00
22872;BME280;11603;44.910;8.630;2022-10-23T00:22:37;101025.44;;;19.08;100.00
22872;BME280;11603;44.910;8.630;2022-10-23T00:25:07;101032.69;;;19.07;100.00
22872;BME280;11603;44.910;8.630;2022-10-23T00:27:33;101043.56;;;19.07;100.00
22872;BME280;11603;44.910;8.630;2022-10-23T00:29:59;101032.59;;;19.18;100.00
22872;BME280;11603;44.910;8.630;2022-10-23T00:32:26;101036.72;;;19.22;100.00
22872;BME280;11603;44.910;8.630;2022-10-23T00:34:52;101034.31;;;19.19;100.00
22872;BME280;11603;44.910;8.630;2022-10-23T00:37:18;101032.47;;;19.20;100.00
22872;BME280;11603;44.910;8.630;2022-10-23T00:39:44;101043.41;;;18.99;100.00
22872;BME280;11603;44.910;8.630;2022-10-23T00:42:14;101045.16;;;19.10;100.00
22872;BME280;11603;44.910;8.630;2022-10-23T00:47:08;101054.28;;;19.18;100.00
22872;BME280;11603;44.910;8.630;2022-10-23T00:49:34;101056.56;;;19.23;100.00
22872;BME280;11603;44.910;8.630;2022-10-23T00:52:02;101058.00;;;19.17;100.00
22872;BME280;11603;44.910;8.630;2022-10-23T00:54:32;101048.28;;;19.15;100.00
22872;BME280;11603;44.910;8.630;2022-10-23T00:57:01;101045.41;;;19.16;100.00
22872;BME280;11603;44.910;8.630;2022-10-23T00:59:27;101052.31;;;19.20;100.00
22872;BME280;11603;44.910;8.630;2022-10-23T01:01:53;101060.28;;;19.22;100.00
22872;BME280;11603;44.910;8.630;2022-10-23T01:04:19;101042.13;;;19.13;100.00
22872;BME280;11603;44.910;8.630;2022-10-23T01:12:16;101037.53;;;18.94;100.00
22872;BME280;11603;44.910;8.630;2022-10-23T01:29:14;101059.28;;;19.23;100.00
22872;BME280;11603;44.910;8.630;2022-10-23T01:31:49;101038.88;;;19.28;100.00
22872;BME280;11603;44.910;8.630;2022-10-23T01:34:24;101039.75;;;19.29;100.00
22872;BME280;11603;44.910;8.630;2022-10-23T01:36:53;101041.59;;;19.28;100.00
22872;BME280;11603;44.910;8.630;2022-10-23T01:39:31;101034.19;;;19.30;100.00
22872;BME280;11603;44.910;8.630;2022-10-23T01:42:09;101038.03;;;19.28;100.00
22872;BME280;11603;44.910;8.630;2022-10-23T01:45:02;101030.03;;;19.26;100.00
22872;BME280;11603;44.910;8.630;2022-10-23T01:47:38;101026.47;;;19.26;100.00
22872;BME280;11603;44.910;8.630;2022-10-23T01:50:08;101021.16;;;19.15;100.00
22872;BME280;11603;44.910;8.630;2022-10-23T01:52:39;101022.56;;;18.99;100.00
22872;BME280;11603;44.910;8.630;2022-10-23T01:55:06;101024.56;;;18.97;100.00
22872;BME280;11603;44.910;8.630;2022-10-23T01:57:34;101021.84;;;18.97;100.00
22872;BME280;11603;44.910;8.630;2022-10-23T02:00:11;101022.25;;;18.93;100.00
22872;BME280;11603;44.910;8.630;2022-10-23T02:02:51;101037.81;;;19.00;100.00
22872;BME280;11603;44.910;8.630;2022-10-23T02:05:23;101034.81;;;18.94;100.00
22872;BME280;11603;44.910;8.630;2022-10-23T02:07:51;101024.84;;;18.94;100.00
22872;BME280;11603;44.910;8.630;2022-10-23T02:10:17;101024.56;;;18.97;100.00
22872;BME280;11603;44.910;8.630;2022-10-23T02:13:04;101024.53;;;18.88;100.00
22872;BME280;11603;44.910;8.630;2022-10-23T02:15:49;101024.09;;;18.83;100.00
22872;BME280;11603;44.910;8.630;2022-10-23T02:21:10;101023.81;;;18.95;100.00
22872;BME280;11603;44.910;8.630;2022-10-23T02:23:38;101013.16;;;19.03;100.00
22872;BME280;11603;44.910;8.630;2022-10-23T02:26:24;101021.59;;;19.10;100.00
22872;BME280;11603;44.910;8.630;2022-10-23T02:29:00;101014.59;;;19.08;100.00
22872;BME280;11603;44.910;8.630;2022-10-23T02:31:30;101005.03;;;19.03;100.00
22872;BME280;11603;44.910;8.630;2022-10-23T02:33:55;101009.59;;;19.03;100.00
22872;BME280;11603;44.910;8.630;2022-10-23T02:36:21;101004.03;;;19.04;100.00
22872;BME280;11603;44.910;8.630;2022-10-23T02:38:47;101017.00;;;19.11;100.00
22872;BME280;11603;44.910;8.630;2022-10-23T02:49:51;101014.44;;;18.99;100.00
22872;BME280;11603;44.910;8.630;2022-10-23T02:55:24;101026.72;;;19.03;100.00
22872;BME280;11603;44.910;8.630;2022-10-23T03:00:45;101011.72;;;18.99;100.00
22872;BME280;11603;44.910;8.630;2022-10-23T03:03:35;101000.03;;;18.99;100.00
22872;BME280;11603;44.910;8.630;2022-10-23T03:06:04;101014.56;;;18.98;100.00
22872;BME280;11603;44.910;8.630;2022-10-23T03:08:40;101023.69;;;18.97;100.00
22872;BME280;11603;44.910;8.630;2022-10-23T03:11:05;101002.00;;;18.97;100.00
22872;BME280;11603;44.910;8.630;2022-10-23T03:13:31;101002.28;;;18.94;100.00
22872;BME280;11603;44.910;8.630;2022-10-23T03:15:56;101020.28;;;19.04;100.00
22872;BME280;11603;44.910;8.630;2022-10-23T03:18:25;101015.31;;;19.10;100.00
22872;BME280;11603;44.910;8.630;2022-10-23T03:20:50;101019.16;;;19.17;100.00
22872;BME280;11603;44.910;8.630;2022-10-23T03:23:19;101013.19;;;19.23;100.00
22872;BME280;11603;44.910;8.630;2022-10-23T03:25:46;101007.88;;;19.12;100.00
22872;BME280;11603;44.910;8.630;2022-10-23T03:28:26;101009.72;;;19.11;100.00
22872;BME280;11603;44.910;8.630;2022-10-23T03:30:51;101012.31;;;19.13;100.00
22872;BME280;11603;44.910;8.630;2022-10-23T03:33:17;101031.16;;;19.14;100.00
22872;BME280;11603;44.910;8.630;2022-10-23T03:35:43;101029.13;;;19.07;100.00
22872;BME280;11603;44.910;8.630;2022-10-23T03:38:12;101017.00;;;19.11;100.00
22872;BME280;11603;44.910;8.630;2022-10-23T03:40:38;101006.31;;;19.09;100.00
22872;BME280;11603;44.910;8.630;2022-10-23T03:43:03;101021.31;;;19.13;100.00
22872;BME280;11603;44.910;8.630;2022-10-23T03:45:29;101019.03;;;19.18;100.00
22872;BME280;11603;44.910;8.630;2022-10-23T03:47:55;101015.19;;;19.21;100.00
22872;BME280;11603;44.910;8.630;2022-10-23T03:50:20;101029.44;;;19.23;100.00
22872;BME280;11603;44.910;8.630;2022-10-23T03:52:46;101029.19;;;19.26;100.00
22872;BME280;11603;44.910;8.630;2022-10-23T03:55:13;101036.59;;;19.24;100.00
22872;BME280;11603;44.910;8.630;2022-10-23T03:57:38;101033.75;;;19.25;100.00
22872;BME280;11603;44.910;8.630;2022-10-23T04:00:05;101038.03;;;19.28;100.00
22872;BME280;11603;44.910;8.630;2022-10-23T04:02:41;101035.59;;;19.25;100.00
22872;BME280;11603;44.910;8.630;2022-10-23T04:05:07;101029.19;;;19.26;100.00
22872;BME280;11603;44.910;8.630;2022-10-23T04:07:33;101038.44;;;19.23;100.00
22872;BME280;11603;44.910;8.630;2022-10-23T04:10:00;101056.00;;;19.19;100.00
22872;BME280;11603;44.910;8.630;2022-10-23T04:12:27;101043.56;;;19.07;100.00
22872;BME280;11603;44.910;8.630;2022-10-23T04:14:52;101031.41;;;19.11;100.00
22872;BME280;11603;44.910;8.630;2022-10-23T04:17:18;101039.38;;;18.93;100.00
22872;BME280;11603;44.910;8.630;2022-10-23T04:19:43;101024.22;;;18.91;100.00
22872;BME280;11603;44.910;8.630;2022-10-23T04:22:09;101023.56;;;18.98;100.00
22872;BME280;11603;44.910;8.630;2022-10-23T04:24:34;101039.66;;;19.00;100.00
22872;BME280;11603;44.910;8.630;2022-10-23T04:27:00;101030.69;;;18.99;100.00
22872;BME280;11603;44.910;8.630;2022-10-23T04:29:28;101042.34;;;18.90;100.00
22872;BME280;11603;44.910;8.630;2022-10-23T04:31:56;101043.34;;;18.89;100.00
22872;BME280;11603;44.910;8.630;2022-10-23T04:34:21;101022.81;;;18.87;100.00
22872;BME280;11603;44.910;8.630;2022-10-23T04:36:47;101040.50;;;18.91;100.00
22872;BME280;11603;44.910;8.630;2022-10-23T04:39:13;101034.53;;;18.97;100.00
22872;BME280;11603;44.910;8.630;2022-10-23T04:41:39;101048.53;;;19.02;100.00
22872;BME280;11603;44.910;8.630;2022-10-23T04:44:05;101053.38;;;18.98;100.00
22872;BME280;11603;44.910;8.630;2022-10-23T04:46:35;101039.41;;;19.03;100.00
22872;BME280;11603;44.910;8.630;2022-10-23T04:49:00;101034.56;;;19.07;100.00
22872;BME280;11603;44.910;8.630;2022-10-23T04:51:44;101044.53;;;18.96;100.00
22872;BME280;11603;44.910;8.630;2022-10-23T04:54:28;101042.38;;;19.00;100.00
22872;BME280;11603;44.910;8.630;2022-10-23T04:57:09;101057.25;;;19.05;100.00
22872;BME280;11603;44.910;8.630;2022-10-23T04:59:52;101044.13;;;19.11;100.00
22872;BME280;11603;44.910;8.630;2022-10-23T05:02:17;101059.56;;;19.10;100.00
22872;BME280;11603;44.910;8.630;2022-10-23T05:04:46;101068.28;;;19.14;100.00
22872;BME280;11603;44.910;8.630;2022-10-23T05:07:30;101056.25;;;19.07;100.00
22872;BME280;11603;44.910;8.630;2022-10-23T05:10:07;101074.81;;;19.11;100.00
22872;BME280;11603;44.910;8.630;2022-10-23T05:12:41;101046.84;;;19.11;100.00
22872;BME280;11603;44.910;8.630;2022-10-23T05:15:07;101054.13;;;19.10;100.00
22872;BME280;11603;44.910;8.630;2022-10-23T05:17:34;101064.81;;;19.12;100.00
22872;BME280;11603;44.910;8.630;2022-10-23T05:20:04;101057.28;;;19.15;100.00
22872;BME280;11603;44.910;8.630;2022-10-23T05:22:34;101045.84;;;19.12;100.00
22872;BME280;11603;44.910;8.630;2022-10-23T05:25:04;101048.94;;;18.97;100.00
22872;BME280;11603;44.910;8.630;2022-10-23T05:27:31;101045.81;;;19.02;100.00
22872;BME280;11603;44.910;8.630;2022-10-23T05:29:57;101053.22;;;19.00;100.00
22872;BME280;11603;44.910;8.630;2022-10-23T05:32:28;101050.25;;;19.03;100.00
22872;BME280;11603;44.910;8.630;2022-10-23T05:34:57;101049.97;;;19.06;100.00
22872;BME280;11603;44.910;8.630;2022-10-23T05:37:26;101045.41;;;19.07;100.00
22872;BME280;11603;44.910;8.630;2022-10-23T05:40:01;101052.66;;;19.06;100.00
22872;BME280;11603;44.910;8.630;2022-10-23T05:42:29;101061.84;;;19.05;100.00
22872;BME280;11603;44.910;8.630;2022-10-23T05:44:56;101056.25;;;19.07;100.00
22872;BME280;11603;44.910;8.630;2022-10-23T05:47:59;101071.81;;;19.04;100.00
22872;BME280;11603;44.910;8.630;2022-10-23T05:50:45;101071.41;;;19.09;100.00
22872;BME280;11603;44.910;8.630;2022-10-23T05:53:17;101074.13;;;19.09;100.00
22872;BME280;11603;44.910;8.630;2022-10-23T05:56:07;101061.41;;;19.10;100.00
22872;BME280;11603;44.910;8.630;2022-10-23T05:58:45;101076.41;;;19.14;100.00
22872;BME280;11603;44.910;8.630;2022-10-23T06:01:26;101081.53;;;19.17;100.00
22872;BME280;11603;44.910;8.630;2022-10-23T06:04:04;101090.81;;;19.14;100.00
22872;BME280;11603;44.910;8.630;2022-10-23T06:07:08;101090.91;;;18.93;100.00
22872;BME280;11603;44.910;8.630;2022-10-23T06:09:34;101089.16;;;18.92;100.00
22872;BME280;11603;44.910;8.630;2022-10-23T06:12:01;101092.44;;;18.86;100.00
22872;BME280;11603;44.910;8.630;2022-10-23T06:14:29;101093.94;;;18.79;100.00
22872;BME280;11603;44.910;8.630;2022-10-23T06:16:55;101091.44;;;18.87;100.00
22872;BME280;11603;44.910;8.630;2022-10-23T06:19:22;101097.44;;;18.91;100.00
22872;BME280;11603;44.910;8.630;2022-10-23T06:21:52;101106.88;;;18.96;100.00
22872;BME280;11603;44.910;8.630;2022-10-23T06:24:21;101120.84;;;18.92;100.00
22872;BME280;11603;44.910;8.630;2022-10-23T06:26:52;101115.72;;;18.89;100.00
22872;BME280;11603;44.910;8.630;2022-10-23T06:29:31;101113.16;;;18.97;100.00
22872;BME280;11603;44.910;8.630;2022-10-23T06:31:56;101112.31;;;18.96;100.00
22872;BME280;11603;44.910;8.630;2022-10-23T06:34:22;101118.53;;;18.87;100.00
22872;BME280;11603;44.910;8.630;2022-10-23T06:36:47;101130.97;;;18.90;100.00
22872;BME280;11603;44.910;8.630;2022-10-23T06:39:31;101126.84;;;18.95;100.00
22872;BME280;11603;44.910;8.630;2022-10-23T06:42:11;101132.13;;;18.97;100.00
22872;BME280;11603;44.910;8.630;2022-10-23T06:44:55;101132.69;;;18.91;100.00
22872;BME280;11603;44.910;8.630;2022-10-23T06:47:50;101137.69;;;18.95;100.00
22872;BME280;11603;44.910;8.630;2022-10-23T06:50:38;101129.16;;;19.00;100.00
22872;BME280;11603;44.910;8.630;2022-10-23T06:53:10;101133.75;;;18.99;100.00
22872;BME280;11603;44.910;8.630;2022-10-23T06:55:40;101141.19;;;19.07;100.00
22872;BME280;11603;44.910;8.630;2022-10-23T06:58:07;101155.47;;;19.09;100.00
22872;BME280;11603;44.910;8.630;2022-10-23T07:00:39;101145.47;;;19.10;100.00
22872;BME280;11603;44.910;8.630;2022-10-23T07:03:05;101143.63;;;19.10;100.00
22872;BME280;11603;44.910;8.630;2022-10-23T07:05:33;101136.78;;;19.16;100.00
22872;BME280;11603;44.910;8.630;2022-10-23T07:07:59;101152.78;;;19.19;100.00
22872;BME280;11603;44.910;8.630;2022-10-23T07:10:33;101163.63;;;19.19;100.00
22872;BME280;11603;44.910;8.630;2022-10-23T07:12:59;101167.47;;;19.16;100.00
22872;BME280;11603;44.910;8.630;2022-10-23T07:15:39;101172.75;;;19.18;100.00
22872;BME280;11603;44.910;8.630;2022-10-23T07:18:09;101180.03;;;19.17;100.00
22872;BME280;11603;44.910;8.630;2022-10-23T07:21:08;101178.47;;;19.15;100.00
22872;BME280;11603;44.910;8.630;2022-10-23T07:23:34;101182.63;;;19.19;100.00
22872;BME280;11603;44.910;8.630;2022-10-23T07:26:06;101180.16;;;19.16;100.00
22872;BME280;11603;44.910;8.630;2022-10-23T07:28:33;101178.94;;;19.20;100.00
22872;BME280;11603;44.910;8.630;2022-10-23T07:30:59;101192.16;;;19.13;100.00
22872;BME280;11603;44.910;8.630;2022-10-23T07:33:41;101198.44;;;19.14;100.00
22872;BME280;11603;44.910;8.630;2022-10-23T07:36:13;101190.97;;;19.06;100.00
22872;BME280;11603;44.910;8.630;2022-10-23T07:38:39;101181.97;;;19.05;100.00
22872;BME280;11603;44.910;8.630;2022-10-23T07:41:05;101194.41;;;19.08;100.00
22872;BME280;11603;44.910;8.630;2022-10-23T07:43:31;101206.00;;;18.89;100.00
22872;BME280;11603;44.910;8.630;2022-10-23T07:45:58;101209.41;;;18.82;100.00
22872;BME280;11603;44.910;8.630;2022-10-23T07:48:32;101203.56;;;18.86;100.00
22872;BME280;11603;44.910;8.630;2022-10-23T07:50:59;101204.56;;;18.85;100.00
22872;BME280;11603;44.910;8.630;2022-10-23T07:53:26;101210.38;;;18.81;100.00
22872;BME280;11603;44.910;8.630;2022-10-23T07:55:58;101210.00;;;18.65;100.00
22872;BME280;11603;44.910;8.630;2022-10-23T07:58:33;101219.50;;;18.59;100.00
22872;BME280;11603;44.910;8.630;2022-10-23T08:01:16;101217.44;;;18.51;100.00
22872;BME280;11603;44.910;8.630;2022-10-23T08:03:43;101210.41;;;18.49;100.00
22872;BME280;11603;44.910;8.630;2022-10-23T08:06:09;101211.03;;;18.52;100.00
22872;BME280;11603;44.910;8.630;2022-10-23T08:08:35;101218.78;;;18.57;100.00
22872;BME280;11603;44.910;8.630;2022-10-23T08:11:02;101224.78;;;18.60;100.00
22872;BME280;11603;44.910;8.630;2022-10-23T08:13:36;101222.59;;;18.54;100.00
22872;BME280;11603;44.910;8.630;2022-10-23T08:16:04;101208.44;;;18.51;100.00
22872;BME280;11603;44.910;8.630;2022-10-23T08:18:49;101218.06;;;18.55;100.00
22872;BME280;11603;44.910;8.630;2022-10-23T08:21:17;101225.06;;;18.57;100.00
22872;BME280;11603;44.910;8.630;2022-10-23T08:23:44;101218.50;;;18.60;100.00
22872;BME280;11603;44.910;8.630;2022-10-23T08:26:10;101217.72;;;18.69;100.00
22872;BME280;11603;44.910;8.630;2022-10-23T08:28:36;101219.91;;;18.75;100.00
22872;BME280;11603;44.910;8.630;2022-10-23T08:31:12;101232.13;;;18.90;100.00
22872;BME280;11603;44.910;8.630;2022-10-23T08:33:40;101235.00;;;18.89;100.00
22872;BME280;11603;44.910;8.630;2022-10-23T08:36:17;101228.84;;;18.87;100.00
22872;BME280;11603;44.910;8.630;2022-10-23T08:38:43;101227.69;;;18.89;100.00
22872;BME280;11603;44.910;8.630;2022-10-23T08:41:32;101224.91;;;19.00;100.00
22872;BME280;11603;44.910;8.630;2022-10-23T08:46:47;101229.81;;;19.07;100.00
22872;BME280;11603;44.910;8.630;2022-10-23T08:49:50;101222.56;;;19.17;100.00
22872;BME280;11603;44.910;8.630;2022-10-23T08:52:32;101218.34;;;19.24;100.00
22872;BME280;11603;44.910;8.630;2022-10-23T08:57:50;101226.34;;;19.46;100.00
22872;BME280;11603;44.910;8.630;2022-10-23T09:00:18;101225.00;;;19.40;100.00
22872;BME280;11603;44.910;8.630;2022-10-23T09:02:46;101224.94;;;19.31;100.00
22872;BME280;11603;44.910;8.630;2022-10-23T09:05:19;101227.94;;;19.37;100.00
22872;BME280;11603;44.910;8.630;2022-10-23T09:18:45;101216.25;;;19.67;100.00
22872;BME280;11603;44.910;8.630;2022-10-23T09:21:12;101216.50;;;19.55;100.00
22872;BME280;11603;44.910;8.630;2022-10-23T09:23:38;101211.09;;;19.64;100.00
22872;BME280;11603;44.910;8.630;2022-10-23T09:26:11;101221.28;;;19.72;100.00
22872;BME280;11603;44.910;8.630;2022-10-23T09:29:05;101223.38;;;19.68;100.00
22872;BME280;11603;44.910;8.630;2022-10-23T09:31:33;101229.13;;;19.75;100.00
22872;BME280;11603;44.910;8.630;2022-10-23T09:34:00;101229.22;;;19.64;100.00
22872;BME280;11603;44.910;8.630;2022-10-23T09:36:28;101233.34;;;19.58;100.00
22872;BME280;11603;44.910;8.630;2022-10-23T09:38:56;101249.50;;;19.60;100.00
22872;BME280;11603;44.910;8.630;2022-10-23T09:41:36;101240.69;;;19.67;100.00
22872;BME280;11603;44.910;8.630;2022-10-23T09:46:38;101233.00;;;19.72;100.00
22872;BME280;11603;44.910;8.630;2022-10-23T09:49:04;101246.28;;;19.75;100.00
22872;BME280;11603;44.910;8.630;2022-10-23T09:51:30;101225.84;;;19.81;100.00
22872;BME280;11603;44.910;8.630;2022-10-23T09:53:58;101241.03;;;19.83;100.00
22872;BME280;11603;44.910;8.630;2022-10-23T09:56:31;101253.91;;;19.91;100.00
22872;BME280;11603;44.910;8.630;2022-10-23T09:59:15;101241.19;;;19.92;100.00
22872;BME280;11603;44.910;8.630;2022-10-23T10:01:54;101255.03;;;19.88;100.00
22872;BME280;11603;44.910;8.630;2022-10-23T10:04:40;101256.94;;;20.07;100.00
22872;BME280;11603;44.910;8.630;2022-10-23T10:07:21;101258.81;;;20.16;100.00
22872;BME280;11603;44.910;8.630;2022-10-23T10:09:47;101263.22;;;19.98;100.00
22872;BME280;11603;44.910;8.630;2022-10-23T10:26:17;101243.44;;;19.77;100.00
22872;BME280;11603;44.910;8.630;2022-10-23T10:29:14;101253.88;;;19.81;100.00
22872;BME280;11603;44.910;8.630;2022-10-23T10:36:53;101237.06;;;20.07;100.00
22872;BME280;11603;44.910;8.630;2022-10-23T10:51:10;101229.34;;;20.21;100.00
22872;BME280;11603;44.910;8.630;2022-10-23T10:53:29;101226.78;;;20.29;100.00
22872;BME280;11603;44.910;8.630;2022-10-23T10:55:58;101226.19;;;20.16;100.00
22872;BME280;11603;44.910;8.630;2022-10-23T10:58:34;101224.31;;;19.98;100.00
22872;BME280;11603;44.910;8.630;2022-10-23T11:01:09;101223.91;;;20.02;100.00
22872;BME280;11603;44.910;8.630;2022-10-23T11:04:08;101227.78;;;20.09;100.00
22872;BME280;11603;44.910;8.630;2022-10-23T11:06:36;101230.63;;;20.08;100.00
22872;BME280;11603;44.910;8.630;2022-10-23T11:09:24;101223.03;;;19.92;100.00
22872;BME280;11603;44.910;8.630;2022-10-23T11:11:52;101223.16;;;19.91;100.00
22872;BME280;11603;44.910;8.630;2022-10-23T11:14:21;101225.63;;;19.94;100.00
22872;BME280;11603;44.910;8.630;2022-10-23T11:16:52;101225.19;;;19.98;100.00
22872;BME280;11603;44.910;8.630;2022-10-23T11:19:23;101222.75;;;20.05;100.00
22872;BME280;11603;44.910;8.630;2022-10-23T11:30:24;101209.19;;;20.14;100.00
22872;BME280;11603;44.910;8.630;2022-10-23T11:35:59;101210.38;;;20.31;100.00
22872;BME280;11603;44.910;8.630;2022-10-23T11:38:32;101205.66;;;20.43;100.00
22872;BME280;11603;44.910;8.630;2022-10-23T11:41:01;101204.91;;;20.69;100.00
22872;BME280;11603;44.910;8.630;2022-10-23T11:48:50;101188.78;;;21.05;100.00
22872;BME280;11603;44.910;8.630;2022-10-23T11:57:11;101195.66;;;20.99;100.00
22872;BME280;11603;44.910;8.630;2022-10-23T12:02:31;101187.94;;;21.14;100.00
22872;BME280;11603;44.910;8.630;2022-10-23T12:05:31;101175.91;;;21.17;100.00
22872;BME280;11603;44.910;8.630;2022-10-23T12:07:56;101180.25;;;20.90;100.00
22872;BME280;11603;44.910;8.630;2022-10-23T12:10:29;101180.00;;;20.74;100.00
22872;BME280;11603;44.910;8.630;2022-10-23T12:12:57;101175.25;;;20.86;100.00
22872;BME280;11603;44.910;8.630;2022-10-23T12:15:24;101168.75;;;21.06;100.00
22872;BME280;11603;44.910;8.630;2022-10-23T12:17:52;101161.00;;;21.11;100.00
22872;BME280;11603;44.910;8.630;2022-10-23T12:28:58;101155.91;;;20.98;100.00
22872;BME280;11603;44.910;8.630;2022-10-23T12:40:16;101152.41;;;20.59;100.00
22872;BME280;11603;44.910;8.630;2022-10-23T12:42:50;101152.09;;;20.62;100.00
22872;BME280;11603;44.910;8.630;2022-10-23T12:45:23;101145.22;;;20.78;100.00
22872;BME280;11603;44.910;8.630;2022-10-23T12:47:51;101136.84;;;20.98;100.00
22872;BME280;11603;44.910;8.630;2022-10-23T12:50:25;101136.81;;;21.08;100.00
22872;BME280;11603;44.910;8.630;2022-10-23T12:52:58;101144.94;;;20.81;100.00
22872;BME280;11603;44.910;8.630;2022-10-23T12:55:33;101146.25;;;20.67;100.00
22872;BME280;11603;44.910;8.630;2022-10-23T12:58:20;101141.94;;;20.74;100.00
22872;BME280;11603;44.910;8.630;2022-10-23T13:00:56;101135.91;;;20.80;100.00
22872;BME280;11603;44.910;8.630;2022-10-23T13:03:23;101133.16;;;20.90;100.00
22872;BME280;11603;44.910;8.630;2022-10-23T13:05:51;101127.25;;;21.04;100.00
22872;BME280;11603;44.910;8.630;2022-10-23T13:08:19;101116.44;;;21.22;100.00
22872;BME280;11603;44.910;8.630;2022-10-23T13:11:05;101126.63;;;21.20;100.00
22872;BME280;11603;44.910;8.630;2022-10-23T13:13:38;101123.50;;;21.05;100.00
22872;BME280;11603;44.910;8.630;2022-10-23T13:16:18;101116.78;;;21.09;100.00
22872;BME280;11603;44.910;8.630;2022-10-23T13:18:45;101116.50;;;21.02;100.00
22872;BME280;11603;44.910;8.630;2022-10-23T13:21:25;101108.34;;;21.02;100.00
22872;BME280;11603;44.910;8.630;2022-10-23T13:23:52;101102.53;;;20.88;100.00
22872;BME280;11603;44.910;8.630;2022-10-23T13:26:27;101098.44;;;20.74;100.00
22872;BME280;11603;44.910;8.630;2022-10-23T13:28:54;101091.41;;;20.81;100.00
22872;BME280;11603;44.910;8.630;2022-10-23T13:31:24;101081.28;;;21.01;100.00
22872;BME280;11603;44.910;8.630;2022-10-23T13:36:30;101086.75;;;21.28;100.00
22872;BME280;11603;44.910;8.630;2022-10-23T13:41:26;101078.13;;;21.33;100.00
22872;BME280;11603;44.910;8.630;2022-10-23T13:43:52;101080.53;;;21.36;100.00
22872;BME280;11603;44.910;8.630;2022-10-23T13:46:21;101080.91;;;21.23;100.00
22872;BME280;11603;44.910;8.630;2022-10-23T13:48:47;101081.47;;;21.27;100.00
22872;BME280;11603;44.910;8.630;2022-10-23T13:51:15;101088.97;;;21.15;100.00
22872;BME280;11603;44.910;8.630;2022-10-23T13:53:43;101089.72;;;21.07;100.00
22872;BME280;11603;44.910;8.630;2022-10-23T13:56:13;101086.84;;;21.09;100.00
22872;BME280;11603;44.910;8.630;2022-10-23T13:58:39;101088.03;;;20.97;100.00
22872;BME280;11603;44.910;8.630;2022-10-23T14:01:05;101084.38;;;20.88;100.00
22872;BME280;11603;44.910;8.630;2022-10-23T14:03:31;101085.69;;;20.75;100.00
22872;BME280;11603;44.910;8.630;2022-10-23T14:05:56;101075.44;;;20.59;100.00
22872;BME280;11603;44.910;8.630;2022-10-23T14:08:22;101080.84;;;20.68;100.00
22872;BME280;11603;44.910;8.630;2022-10-23T14:10:47;101075.41;;;20.68;100.00
22872;BME280;11603;44.910;8.630;2022-10-23T14:13:13;101082.38;;;20.81;100.00
22872;BME280;11603;44.910;8.630;2022-10-23T14:15:38;101088.72;;;20.71;100.00
22872;BME280;11603;44.910;8.630;2022-10-23T14:18:04;101093.66;;;20.39;100.00
22872;BME280;11603;44.910;8.630;2022-10-23T14:20:30;101091.78;;;20.20;100.00
22872;BME280;11603;44.910;8.630;2022-10-23T14:22:55;101088.50;;;20.26;100.00
22872;BME280;11603;44.910;8.630;2022-10-23T14:25:22;101087.38;;;20.29;100.00
22872;BME280;11603;44.910;8.630;2022-10-23T14:27:47;101100.38;;;20.45;100.00
22872;BME280;11603;44.910;8.630;2022-10-23T14:30:14;101102.25;;;20.44;100.00
22872;BME280;11603;44.910;8.630;2022-10-23T14:32:40;101084.22;;;20.43;100.00
22872;BME280;11603;44.910;8.630;2022-10-23T14:35:05;101085.34;;;20.50;100.00
22872;BME280;11603;44.910;8.630;2022-10-23T14:37:32;101083.59;;;20.59;100.00
22872;BME280;11603;44.910;8.630;2022-10-23T14:39:58;101077.44;;;20.66;100.00
22872;BME280;11603;44.910;8.630;2022-10-23T14:42:24;101087.91;;;20.61;100.00
22872;BME280;11603;44.910;8.630;2022-10-23T14:44:50;101090.19;;;20.56;100.00
22872;BME280;11603;44.910;8.630;2022-10-23T14:47:16;101084.59;;;20.58;100.00
22872;BME280;11603;44.910;8.630;2022-10-23T14:49:45;101085.59;;;20.66;100.00
22872;BME280;11603;44.910;8.630;2022-10-23T14:52:12;101092.41;;;20.80;100.00
22872;BME280;11603;44.910;8.630;2022-10-23T14:54:37;101092.53;;;20.79;100.00
22872;BME280;11603;44.910;8.630;2022-10-23T14:57:03;101080.69;;;20.70;100.00
22872;BME280;11603;44.910;8.630;2022-10-23T14:59:28;101077.16;;;20.60;100.00
22872;BME280;11603;44.910;8.630;2022-10-23T15:01:54;101071.88;;;20.58;100.00
22872;BME280;11603;44.910;8.630;2022-10-23T15:04:20;101080.31;;;20.55;100.00
22872;BME280;11603;44.910;8.630;2022-10-23T15:06:46;101089.59;;;20.62;100.00
22872;BME280;11603;44.910;8.630;2022-10-23T15:09:12;101089.03;;;20.59;100.00
22872;BME280;11603;44.910;8.630;2022-10-23T15:11:38;101088.19;;;20.58;100.00
22872;BME280;11603;44.910;8.630;2022-10-23T15:14:04;101092.72;;;20.67;100.00
22872;BME280;11603;44.910;8.630;2022-10-23T15:16:30;101091.56;;;20.70;100.00